This is the latest recevied weather packets stored in our database for station/object KG4YZY-1. If no packets are shown the sender has not sent any weather packets the latest 10 day(s).
| Time | Temp. | Humidity | Pressure | Rain* | Wind** | Luminosity | Snow |
|---|---|---|---|---|---|---|---|
| 1787597704 | 27.22° C | 83% | 1018.3 hPa | 1.02 mm | - | - | - |
| 1787597404 | 27.22° C | 81% | 1018.2 hPa | 0 mm | - | - | - |
| 1787597104 | 27.78° C | 79% | 1018.1 hPa | 0 mm | - | - | - |
| 1787596803 | 27.78° C | 77% | 1018.3 hPa | 0 mm | - | - | - |
| 1787596503 | 28.33° C | 75% | 1018.3 hPa | 0 mm | - | - | - |
| 1787596203 | 28.89° C | 74% | 1018.3 hPa | 0 mm | - | - | - |
| 1787595903 | 29.44° C | 75% | 1018.4 hPa | 0 mm | - | - | - |
| 1787595603 | 30.56° C | 72% | 1018.2 hPa | 0 mm | - | - | - |
| 1787595304 | 31.67° C | 69% | 1018.2 hPa | 0 mm | - | - | - |
| 1787595004 | 33.33° C | 67% | 1018.2 hPa | 0 mm | - | - | - |
| 1787594704 | 33.89° C | 65% | 1018.2 hPa | 0 mm | - | - | - |
| 1787594404 | 33.33° C | 64% | 1018 hPa | 0 mm | - | - | - |
| 1787594103 | 33.33° C | 66% | 1018 hPa | 0 mm | - | - | - |
| 1787593803 | 33.33° C | 68% | 1017.9 hPa | 0 mm | - | - | - |
| 1787593503 | 32.78° C | 68% | 1018.1 hPa | 0 mm | - | - | - |
| 1787593203 | 32.78° C | 68% | 1018 hPa | 0 mm | - | - | - |
| 1787592903 | 32.78° C | 68% | 1018 hPa | 0 mm | - | - | - |
| 1787592604 | 32.78° C | 70% | 1018 hPa | 0 mm | - | - | - |
| 1787592304 | 32.22° C | 71% | 1018.1 hPa | 0 mm | - | - | - |
| 1787592004 | 32.22° C | 70% | 1018.2 hPa | 0 mm | - | - | - |
| 1787591703 | 31.67° C | 71% | 1018.2 hPa | 0 mm | - | - | - |
| 1787591404 | 31.67° C | 73% | 1018.3 hPa | 0 mm | - | - | - |
| 1787591104 | 31.11° C | 73% | 1018.2 hPa | 0 mm | - | - | - |
| 1787590804 | 30.56° C | 75% | 1018.3 hPa | 0 mm | - | - | - |
| 1787590504 | 30.56° C | 75% | 1018.4 hPa | 0 mm | - | - | - |
* Rain latest hour (hover to see other rain measurements)
** Current wind speed in m/s (hover to see current wind gust speed)